Latest Weather Observations for Batchelor

IDD60801

Issued at 11:31 pm CST Sunday 20 May 2018 (issued every 10 minutes, with the page automatically refreshed every 10 minutes)

About weather observations | Map of weather stations | Latest weather observations for NT | Other Formats
Station Details ID: 014272 Name: BATCHELOR AIRPORT Lat: -13.05 Lon: 131.03 Height: 104.0 m
Data from the previous 72 hours. | See also: Recent months at Batchelor
Date/Time
CST
Temp
°C
App
Temp
°C
Dew
Point
°C
Rel
Hum
%
Delta-T
°C
Wind Press
QNH
hPa
Press
MSL
hPa
Rain since
9am
mm
Dir  Spd
km/h
Gust
km/h
Spd
kts
Gust
kts
20/11:30pm 23.2 22.2 10.9 46 6.9 SE 7 13 4 7 1014.0 1013.4 0.0
20/11:00pm 23.3 22.4 11.4 47 6.7 SE 7 9 4 5 1014.1 1013.5 0.0
20/10:30pm 24.0 23.0 11.0 44 7.3 SE 7 13 4 7 1014.2 1013.6 0.0
20/10:00pm 24.8 23.5 11.4 43 7.6 SE 9 13 5 7 1014.1 1013.5 0.0
20/09:30pm 25.1 23.8 11.3 42 7.8 SE 9 13 5 7 1014.0 1013.4 0.0
20/09:00pm 25.0 24.3 11.9 44 7.5 SSE 7 11 4 6 1013.9 1013.3 0.0
20/08:30pm 25.4 25.0 12.3 44 7.6 SSE 6 7 3 4 1013.4 1012.8 0.0
20/08:00pm 25.3 25.1 12.9 46 7.2 SSE 6 7 3 4 1012.9 1012.3 0.0
20/07:30pm 25.9 25.7 13.1 45 7.5 SSE 6 7 3 4 1012.3 1011.8 0.0
20/07:00pm 26.7 26.3 12.4 41 8.3 SSE 6 7 3 4 1011.9 1011.4 0.0
20/06:30pm 27.9 27.3 12.3 38 9.1 SE 7 9 4 5 1011.5 1011.0 0.0
20/06:00pm 29.5 28.4 12.0 34 10.2 SSE 9 15 5 8 1011.2 1010.6 0.0
20/05:30pm 30.5 27.9 11.9 31 10.9 ESE 17 24 9 13 1010.8 1010.2 0.0
20/05:00pm 31.2 29.1 12.5 31 11.1 SE 15 26 8 14 1010.5 1009.9 0.0
20/04:30pm 31.1 28.3 12.5 32 11.1 SE 19 30 10 16 1010.2 1009.6 0.0
20/04:00pm 31.3 28.9 12.6 31 11.1 SE 17 30 9 16 1010.1 1009.5 0.0
20/03:30pm 31.4 28.6 12.7 32 11.2 ESE 19 33 10 18 1010.2 1009.6 0.0
20/03:00pm 31.1 28.2 12.9 32 10.9 ESE 20 32 11 17 1010.3 1009.7 0.0
20/02:30pm 30.8 27.5 12.7 33 10.8 SE 22 35 12 19 1010.5 1009.9 0.0
20/02:00pm 31.0 28.2 13.3 34 10.6 ESE 20 28 11 15 1010.8 1010.2 0.0
20/01:30pm 31.1 28.7 13.8 34 10.5 ESE 19 32 10 17 1011.1 1010.5 0.0
20/01:00pm 30.3 27.4 14.0 37 9.9 ESE 22 35 12 19 1011.6 1011.1 0.0
20/12:30pm 29.8 26.5 14.0 38 9.6 SE 24 37 13 20 1012.0 1011.5 0.0
20/12:00pm 30.0 26.9 14.5 38 9.4 ESE 24 33 13 18 1012.2 1011.7 0.0
20/11:30am 28.7 25.1 14.1 40 8.8 ESE 26 37 14 20 1012.6 1012.1 0.0
20/11:00am 27.8 23.9 14.4 43 8.1 SE 28 39 15 21 1013.1 1012.5 0.0
20/10:30am 26.5 23.2 13.9 45 7.5 SE 24 37 13 20 1013.3 1012.7 0.0
20/10:00am 25.8 23.1 14.6 50 6.7 SE 22 32 12 17 1013.5 1012.9 0.0
20/09:30am 24.5 22.6 14.3 53 6.1 SE 17 28 9 15 1013.8 1013.2 0.0
20/09:00am 23.0 20.6 13.8 56 5.4 SE 19 28 10 15 1013.8 1013.2 0.0
20/08:30am 21.5 21.3 12.9 58 4.9 S 6 9 3 5 1013.6 1013.0 0.0
20/08:00am 19.6 19.1 11.9 61 4.3 SSW 6 7 3 4 1013.2 1012.6 0.0
20/07:30am 18.6 18.0 11.7 64 3.8 SSW 6 9 3 5 1012.8 1012.2 0.0
20/07:00am 18.6 18.1 11.9 65 3.7 S 6 7 3 4 1012.4 1011.9 0.0
20/06:30am 19.8 20.1 13.3 66 3.7 S 4 6 2 3 1012.0 1011.5 0.0
20/06:00am 21.0 21.0 14.2 65 4.0 SSE 7 11 4 6 1011.8 1011.3 0.0
20/05:30am 21.1 20.5 13.5 62 4.4 SE 9 13 5 7 1011.5 1011.0 0.0
20/05:00am 21.2 20.2 12.3 57 5.0 SE 9 15 5 8 1011.5 1011.0 0.0
20/04:30am 21.1 19.3 10.9 52 5.6 SE 11 19 6 10 1011.4 1010.8 0.0
20/04:00am 21.0 18.9 9.9 49 6.0 SE 11 15 6 8 1011.5 1011.0 0.0
20/03:30am 21.6 19.0 9.5 46 6.5 SE 13 17 7 9 1011.6 1011.1 0.0
20/03:00am 21.4 19.5 9.0 45 6.6 SE 9 15 5 8 1012.0 1011.5 0.0
20/02:30am 21.5 19.4 8.4 43 6.9 SSE 9 13 5 7 1012.1 1011.6 0.0
20/02:00am 21.3 19.7 8.6 44 6.7 SSE 7 13 4 7 1012.4 1011.9 0.0
20/01:30am 20.6 19.0 8.9 47 6.2 SE 7 11 4 6 1012.5 1012.0 0.0
20/01:00am 18.7 17.6 10.0 57 4.7 SSE 6 9 3 5 1012.6 1012.1 0.0
20/12:30am - - - - - SSE 4 7 2 4 1013.0 1012.4 0.0
20/12:00am - - - - - S 4 6 2 3 1013.1 1012.5 0.0
 
Date/Time
CST
Temp
°C
App
Temp
°C
Dew
Point
°C
Rel
Hum
%
Delta-T
°C
Wind Press
QNH
hPa
Press
MSL
hPa
Rain since
9am
mm
Dir  Spd
km/h
Gust
km/h
Spd
kts
Gust
kts
19/11:30pm - - - - - CALM 0 0 0 0 1013.5 1012.9 0.0
19/11:00pm - - - - - S 4 6 2 3 1013.6 1013.0 0.0
19/10:30pm - - - - - S 4 6 2 3 1013.7 1013.1 0.0
19/10:00pm - - - - - S 4 6 2 3 1013.6 1013.0 0.0
19/09:30pm - - - - - S 4 6 2 3 1013.5 1012.9 0.0
19/09:00pm - - - - - SSE 4 6 2 3 1013.5 1012.9 0.0
19/08:30pm - - - - - CALM 0 0 0 0 1013.2 1012.6 0.0
19/08:00pm - - - - - CALM 0 0 0 0 1012.6 1012.1 0.0
19/07:30pm - - - - - SSE 2 4 1 2 1012.1 1011.6 0.0
19/07:00pm - - - - - SSE 4 6 2 3 1011.7 1011.2 0.0
19/06:30pm - - - - - SSE 4 4 2 2 1011.4 1010.8 0.0
19/06:00pm - - - - - SE 7 11 4 6 1010.9 1010.3 0.0
19/05:30pm - - - - - SSE 9 13 5 7 1010.5 1009.9 0.0
19/05:00pm - - - - - SE 11 17 6 9 1010.0 1009.4 0.0
19/04:30pm - - - - - ESE 13 22 7 12 1009.8 1009.2 0.0
19/04:00pm - - - - - ESE 13 22 7 12 1009.7 1009.1 0.0
19/03:30pm - - - - - SE 15 24 8 13 1009.8 1009.2 0.0
19/03:00pm - - - - - ESE 15 26 8 14 1009.9 1009.3 0.0
19/02:30pm - - - - - SE 15 28 8 15 1010.1 1009.5 0.0
19/02:00pm 29.3 23.6 4.7 21 12.7 SE 24 33 13 18 1010.4 1009.8 0.0
19/01:30pm 29.4 23.9 4.1 20 13.0 ESE 22 30 12 16 1010.8 1010.2 0.0
19/01:00pm - - - - - ESE 24 33 13 18 1011.3 1010.7 0.0
19/12:30pm - - - - - SE 22 37 12 20 1011.7 1011.2 0.0
19/12:00pm - - - - - ESE 24 35 13 19 1012.3 1011.8 0.0
19/11:30am - - - - - ESE 24 33 13 18 1012.8 1012.2 0.0
19/11:00am - - - - - SE 24 39 13 21 1013.2 1012.6 0.0
19/10:30am - - - - - SE 28 39 15 21 1013.6 1013.0 0.0
19/10:00am - - - - - ESE 24 33 13 18 1013.8 1013.2 0.0
19/09:30am - - - - - SE 24 35 13 19 1013.9 1013.3 0.0
19/09:00am - - - - - SE 19 33 10 18 1013.8 1013.2 0.0
19/08:30am - - - - - SE 19 26 10 14 1013.5 1012.9 0.0
19/08:00am - - - - - SE 13 20 7 11 1013.2 1012.6 0.0
19/07:30am - - - - - SSE 9 15 5 8 1013.0 1012.4 0.0
19/07:00am - - - - - SSE 6 9 3 5 1012.4 1011.9 0.0
19/06:30am - - - - - SSE 9 15 5 8 1012.0 1011.5 0.0
19/06:00am 19.6 18.1 10.6 56 4.9 SSE 9 15 5 8 1011.6 1011.1 0.0
19/05:30am 19.3 18.2 10.8 58 4.6 SSE 7 11 4 6 1011.6 1011.1 0.0
19/05:00am 19.0 17.9 10.6 58 4.6 SE 7 9 4 5 1011.6 1011.1 0.0
19/04:30am 19.0 17.8 10.3 57 4.7 SE 7 9 4 5 1011.6 1011.1 0.0
19/04:00am 18.9 17.5 9.7 55 4.9 SE 7 9 4 5 1011.5 1011.0 0.0
19/03:30am 19.8 18.4 9.7 52 5.4 SE 7 11 4 6 1011.6 1011.1 0.0
19/03:00am 19.6 18.0 8.9 50 5.6 SE 7 9 4 5 1011.7 1011.2 0.0
19/02:30am 20.8 18.7 8.4 45 6.5 SE 9 13 5 7 1011.8 1011.3 0.0
19/02:00am 21.3 19.1 7.9 42 7.0 SE 9 15 5 8 1012.2 1011.7 0.0
19/01:30am 21.5 19.3 7.7 41 7.2 SE 9 15 5 8 1012.5 1012.0 0.0
19/01:00am 21.9 19.2 7.3 39 7.6 SE 11 15 6 8 1012.6 1012.1 0.0
19/12:30am 22.5 19.7 7.1 37 8.0 SE 11 17 6 9 1013.0 1012.4 0.0
19/12:00am 22.5 20.2 7.5 38 7.8 SSE 9 17 5 9 1013.2 1012.6 0.0
 
Date/Time
CST
Temp
°C
App
Temp
°C
Dew
Point
°C
Rel
Hum
%
Delta-T
°C
Wind Press
QNH
hPa
Press
MSL
hPa
Rain since
9am
mm
Dir  Spd
km/h
Gust
km/h
Spd
kts
Gust
kts
18/11:30pm 21.7 19.9 7.9 41 7.2 SSE 7 13 4 7 1013.3 1012.7 0.0
18/11:00pm 21.6 20.0 7.8 41 7.2 S 6 9 3 5 1013.2 1012.6 0.0
18/10:30pm 21.9 20.2 7.7 40 7.4 S 6 9 3 5 1013.3 1012.7 0.0
18/10:00pm 22.6 20.9 8.3 40 7.6 SSE 7 13 4 7 1013.1 1012.5 0.0
18/09:30pm 20.6 19.6 10.4 52 5.6 SSE 6 7 3 4 1013.3 1012.7 0.0
18/09:00pm 17.8 17.5 11.4 66 3.5 SSE 4 6 2 3 1013.1 1012.5 0.0
18/08:30pm 17.5 17.3 11.8 69 3.1 SSE 4 6 2 3 1013.0 1012.4 0.0
18/08:00pm 18.2 18.1 12.0 67 3.4 SSE 4 6 2 3 1012.5 1012.0 0.0
18/07:30pm 18.9 18.5 11.2 61 4.2 SSE 4 6 2 3 1011.9 1011.4 0.0
18/07:00pm 20.8 20.8 11.2 54 5.3 SSE 2 4 1 2 1011.5 1011.0 0.0
18/06:30pm 24.9 23.2 7.5 33 9.2 SSE 6 7 3 4 1010.9 1010.3 0.0
18/06:00pm 26.9 25.0 7.4 29 10.4 SSE 7 13 4 7 1010.4 1009.8 0.0
18/05:30pm 28.3 25.5 7.0 26 11.4 SE 11 17 6 9 1010.1 1009.5 0.0
18/05:00pm 29.0 25.7 6.4 24 12.0 SE 13 19 7 10 1010.0 1009.4 0.0
18/04:30pm 29.5 26.3 6.8 24 12.2 SE 13 20 7 11 1009.9 1009.3 0.0
18/04:00pm 29.8 25.8 6.5 23 12.5 SE 17 26 9 14 1009.8 1009.2 0.0
18/03:30pm 30.1 26.1 6.7 23 12.6 SE 17 26 9 14 1009.9 1009.3 0.0
18/03:00pm 29.3 24.1 5.4 22 12.5 ESE 22 30 12 16 1010.1 1009.5 0.0
18/02:30pm 29.6 24.8 5.6 22 12.7 ESE 20 37 11 20 1010.3 1009.7 0.0
18/02:00pm 29.6 23.7 5.6 22 12.6 SE 26 43 14 23 1010.7 1010.1 0.0
18/01:30pm 29.3 23.3 5.4 22 12.5 ESE 26 39 14 21 1011.0 1010.4 0.0
18/01:00pm 29.3 23.4 6.0 23 12.3 SE 26 37 14 20 1011.3 1010.7 0.0
18/12:30pm 28.7 23.1 5.5 23 12.1 SE 24 35 13 19 1011.7 1011.2 0.0
18/12:00pm 27.5 21.3 4.5 23 11.7 ESE 26 41 14 22 1012.4 1011.9 0.0
18/11:34am 26.6 19.5 3.8 23 11.4 ESE 30 48 16 26 1012.8 1012.2 0.0
18/11:30am 27.0 20.0 4.1 23 11.6 ESE 30 43 16 23 1012.9 1012.3 0.0
18/11:00am 25.4 18.9 4.5 26 10.5 ESE 28 39 15 21 1013.4 1012.8 0.0
18/10:30am 24.8 19.6 3.5 25 10.5 SE 20 33 11 18 1013.6 1013.0 0.0
18/10:00am 23.4 17.2 2.3 25 10.1 SE 24 35 13 19 1013.9 1013.3 0.0
18/09:30am 22.7 17.5 2.2 26 9.7 SE 19 30 10 16 1013.9 1013.3 0.0
18/09:00am 21.4 16.2 2.6 29 8.9 SE 19 28 10 15 1014.0 1013.4 0.0
18/08:30am 20.0 15.1 1.9 30 8.3 SE 17 28 9 15 1013.7 1013.1 0.0
18/08:00am 18.9 14.4 1.9 32 7.8 SE 15 20 8 11 1013.5 1012.9 0.0
18/07:30am 18.2 14.0 1.7 33 7.5 SSE 13 22 7 12 1013.3 1012.7 0.0
18/07:00am 17.7 13.9 1.7 34 7.2 SE 11 17 6 9 1012.9 1012.3 0.0
18/06:30am 18.3 14.0 1.3 32 7.6 SE 13 19 7 10 1012.8 1012.2 0.0
18/06:00am 18.6 14.4 1.6 32 7.7 SE 13 17 7 9 1012.4 1011.9 0.0
18/05:30am 18.3 14.9 1.8 33 7.5 SSE 9 15 5 8 1012.3 1011.8 0.0
18/05:00am 19.2 15.0 1.7 31 8.0 SE 13 17 7 9 1012.3 1011.8 0.0
18/04:30am 18.5 14.7 1.9 33 7.6 SE 11 15 6 8 1012.2 1011.7 0.0
18/04:00am 18.9 14.7 1.4 31 7.9 SE 13 17 7 9 1012.5 1012.0 0.0
18/03:30am 19.8 15.9 1.3 29 8.4 SSE 11 15 6 8 1012.6 1012.1 0.0
18/03:00am 20.4 16.1 1.3 28 8.7 SE 13 19 7 10 1012.9 1012.3 0.0
18/02:30am 20.1 16.3 2.0 30 8.4 SSE 11 15 6 8 1013.2 1012.6 0.0
18/02:00am 20.0 16.2 1.9 30 8.3 SE 11 15 6 8 1013.6 1013.0 0.0
18/01:30am 20.6 16.8 2.0 29 8.6 SE 11 17 6 9 1013.7 1013.1 0.0
18/01:00am 21.0 16.8 1.8 28 8.9 SE 13 20 7 11 1013.9 1013.3 0.0
18/12:30am 21.2 17.1 2.0 28 9.0 SSE 13 19 7 10 1014.0 1013.4 0.0
18/12:00am 21.1 17.4 2.4 29 8.8 SSE 11 17 6 9 1014.1 1013.5 0.0

Other Formats:

Comma delimited format used in spreadsheet applications
http://www.bom.gov.au/fwo/IDD60801/IDD60801.94125.axf

JavaScript Object Notation format (JSON) in row-major order
http://www.bom.gov.au/fwo/IDD60801/IDD60801.94125.json